Denver, CO (80222)

12:17 AM MDT on August 29, 2015 (GMT -0600)
University Hills | | Change Station
CLOSE
Current Station
Personal Weather Station
Location: Denver, CO
Elevation: 5457 ft
Nearby Weather Stations

Elev 5457 ft 39.66 °N, 104.92 °W | Updated 2 minutes ago

Clear
Clear
59.5 °F
Feels Like 59.5 °F
N
0.0
Wind Variable Wind from NNW
Gusts 0.0 mph

Today
High -- | Low -- °F
--% Chance of Precip.
Yesterday
High -- | Low -- °F
Precip. -- in
6:24 AM 7:35 PM
Full, 100% visible
Pressure 30.14 in
Visibility 10.0 miles
Clouds Few 10000 ft
Scattered Clouds 14000 ft
Dew Point 46 °F
Humidity 61%
Rainfall 0.00 in
Snow Depth Not available.
UV 0 out of 12
Pollen 10.10 out of 12
Air Quality Not available.
Flu Activity Not available.
METAR KAPA 290553Z 17003KT 10SM FEW100 SCT140 16/06 A3033 RMK AO2 SLP205 FU T01610061 10267 20156 51010
Pressure 30.14 in
Visibility 10.0 miles
Clouds Few 10000 ft
Scattered Clouds 14000 ft
Dew Point 46 °F
Humidity 61%
Rainfall 0.00 in
Snow Depth Not available.
UV 0 out of 12
Pollen 10.10 out of 12
Air Quality Not available.
Flu Activity Not available.
METAR KAPA 290553Z 17003KT 10SM FEW100 SCT140 16/06 A3033 RMK AO2 SLP205 FU T01610061 10267 20156 51010

10-Day Weather Forecast

×

Almanac

Astronomy

Aug. 29, 2015 Rise Set
Actual Time
Civil Twilight
Nautical Twilight
Astronomical Twilight
Moon
Length of Visible Light
Length of Day
Tomorrow will be .
, % of the Moon is Illuminated

Today's Extremes

State Highs State Lows

Community

WunderPhotos

Upload Photos

1,850,622 photos uploaded!

WunderBlogs® & News

Nearby

Air Quality

  Air Quality AQ Index Pollutant
Not available.

Snow Depth

Station Depth Elevation

Earthquake Activity

City Distance Mag. Time & Date
Minimum magnitude displayed is 2.5.

Coastal Water Temperatures

Place Temperature

Stations

Nearby Weather Stations

Station Location Temp. Windchill Dew Point Humidity Wind Precip. Elev Updated Type